createdAt,value
2023-03-17T00:01:51.611Z,-2.34
2023-03-17T00:04:19.831Z,-2.37
2023-03-17T00:06:47.707Z,-2.39
2023-03-17T00:09:18.212Z,-2.40
2023-03-17T00:11:46.788Z,-2.42
2023-03-17T00:14:14.684Z,-2.46
2023-03-17T00:16:45.091Z,-2.49
2023-03-17T00:19:17.991Z,-2.50
2023-03-17T00:21:48.576Z,-2.50
2023-03-17T00:24:17.248Z,-2.51
2023-03-17T00:26:45.038Z,-2.52
2023-03-17T00:29:13.480Z,-2.52
2023-03-17T00:31:41.425Z,-2.56
2023-03-17T00:34:14.211Z,-2.58
2023-03-17T00:36:43.800Z,-2.60
2023-03-17T00:39:17.394Z,-2.61
2023-03-17T00:44:14.588Z,-2.64
2023-03-17T00:46:42.508Z,-2.68
2023-03-17T00:51:44.826Z,-2.70
2023-03-17T00:54:15.631Z,-2.69
2023-03-17T00:56:44.889Z,-2.70
2023-03-17T00:59:26.256Z,-2.71
2023-03-17T01:01:54.665Z,-2.71
2023-03-17T01:04:23.155Z,-2.70
2023-03-17T01:06:52.214Z,-2.67
2023-03-17T01:09:24.268Z,-2.67
2023-03-17T01:11:51.950Z,-2.71
2023-03-17T01:14:19.629Z,-2.72
2023-03-17T01:16:47.916Z,-2.70
2023-03-17T01:19:16.831Z,-2.68
2023-03-17T01:21:45.811Z,-2.67
2023-03-17T01:24:14.566Z,-2.69
2023-03-17T01:26:42.344Z,-2.69
2023-03-17T01:29:10.084Z,-2.69
2023-03-17T01:31:37.871Z,-2.72
2023-03-17T01:34:06.365Z,-2.75
2023-03-17T01:36:34.530Z,-2.76
2023-03-17T01:39:05.467Z,-2.77
2023-03-17T01:41:37.648Z,-2.78
2023-03-17T01:44:07.275Z,-2.81
2023-03-17T01:46:36.152Z,-2.81
2023-03-17T01:49:10.143Z,-2.82
2023-03-17T01:52:02.960Z,-2.83
2023-03-17T01:54:35.005Z,-2.86
2023-03-17T01:57:21.456Z,-2.88
2023-03-17T02:00:08.188Z,-2.91
2023-03-17T02:02:40.191Z,-2.98
2023-03-17T02:05:11.600Z,-3.01
2023-03-17T02:07:40.540Z,-3.01
2023-03-17T02:10:09.159Z,-3.03
2023-03-17T02:12:37.100Z,-3.08
2023-03-17T02:15:05.934Z,-3.08
2023-03-17T02:17:34.163Z,-3.08
2023-03-17T02:20:17.315Z,-3.10
2023-03-17T02:22:48.656Z,-3.12
2023-03-17T02:25:17.577Z,-3.13
2023-03-17T02:27:48.355Z,-3.13
2023-03-17T02:30:20.627Z,-3.12
2023-03-17T02:32:48.349Z,-3.12
2023-03-17T02:35:16.566Z,-3.13
2023-03-17T02:37:44.417Z,-3.15
2023-03-17T02:40:14.012Z,-3.17
2023-03-17T02:42:42.074Z,-3.17
2023-03-17T02:45:12.508Z,-3.18
2023-03-17T02:47:41.417Z,-3.19
2023-03-17T02:50:17.800Z,-3.20
2023-03-17T02:52:45.556Z,-3.20
2023-03-17T02:55:14.241Z,-3.19
2023-03-17T02:57:41.958Z,-3.18
2023-03-17T03:00:10.836Z,-3.18
2023-03-17T03:02:39.087Z,-3.17
2023-03-17T03:05:08.840Z,-3.19
2023-03-17T03:07:36.774Z,-3.21
2023-03-17T03:10:05.904Z,-3.22
2023-03-17T03:12:33.618Z,-3.22
2023-03-17T03:15:01.250Z,-3.22
2023-03-17T03:17:29.004Z,-3.22
2023-03-17T03:19:56.730Z,-3.23
2023-03-17T03:22:24.461Z,-3.24
2023-03-17T03:24:52.241Z,-3.24
2023-03-17T03:27:19.905Z,-3.25
2023-03-17T03:29:47.648Z,-3.27
2023-03-17T03:32:15.301Z,-3.29
2023-03-17T03:34:43.203Z,-3.27
2023-03-17T03:37:11.131Z,-3.26
2023-03-17T03:39:39.150Z,-3.27
2023-03-17T03:42:07.194Z,-3.28
2023-03-17T03:44:35.436Z,-3.28
2023-03-17T03:47:03.107Z,-3.31
2023-03-17T03:49:30.903Z,-3.35
2023-03-17T03:51:58.570Z,-3.36
2023-03-17T03:54:26.225Z,-3.35
2023-03-17T03:56:53.987Z,-3.36
2023-03-17T03:59:21.657Z,-3.37
2023-03-17T04:01:49.301Z,-3.38
2023-03-17T04:04:17.011Z,-3.39
2023-03-17T04:06:44.765Z,-3.39
2023-03-17T04:09:13.505Z,-3.41
2023-03-17T04:11:41.760Z,-3.41
2023-03-17T04:14:09.427Z,-3.42
2023-03-17T04:16:37.258Z,-3.43
2023-03-17T04:19:04.963Z,-3.44
2023-03-17T04:21:32.706Z,-3.47
2023-03-17T04:24:00.441Z,-3.48
2023-03-17T04:26:28.138Z,-3.47
2023-03-17T04:28:55.820Z,-3.47
2023-03-17T04:31:23.496Z,-3.48
2023-03-17T04:33:51.233Z,-3.49
2023-03-17T04:36:21.725Z,-3.51
2023-03-17T04:38:49.838Z,-3.51
2023-03-17T04:41:17.623Z,-3.54
2023-03-17T04:43:45.673Z,-3.54
2023-03-17T04:46:14.169Z,-3.54
2023-03-17T04:48:41.887Z,-3.52
2023-03-17T04:51:11.700Z,-3.52
2023-03-17T04:53:40.077Z,-3.54
2023-03-17T04:56:07.872Z,-3.54
2023-03-17T04:58:35.930Z,-3.56
2023-03-17T05:01:03.961Z,-3.54
2023-03-17T05:03:31.851Z,-3.53
2023-03-17T05:06:00.951Z,-3.51
2023-03-17T05:08:29.341Z,-3.50
2023-03-17T05:10:58.432Z,-3.48
2023-03-17T05:13:27.339Z,-3.44
2023-03-17T05:15:56.413Z,-3.39
2023-03-17T05:18:25.554Z,-3.36
2023-03-17T05:20:53.647Z,-3.32
2023-03-17T05:23:22.401Z,-3.26
2023-03-17T05:25:50.574Z,-3.20
2023-03-17T05:28:20.807Z,-3.13
2023-03-17T05:30:49.436Z,-3.06
2023-03-17T05:33:17.554Z,-3.00
2023-03-17T05:35:46.503Z,-2.92
2023-03-17T05:38:16.100Z,-2.85
2023-03-17T05:40:44.585Z,-2.77
2023-03-17T05:43:12.513Z,-2.70
2023-03-17T05:45:41.363Z,-2.63
2023-03-17T05:48:09.238Z,-2.55
2023-03-17T05:50:37.303Z,-2.47
2023-03-17T05:53:05.083Z,-2.38
2023-03-17T05:55:32.777Z,-2.29
2023-03-17T05:58:00.967Z,-2.21
2023-03-17T06:00:29.446Z,-2.13
2023-03-17T06:02:57.345Z,-2.04
2023-03-17T06:05:25.040Z,-1.96
2023-03-17T06:07:56.226Z,-1.88
2023-03-17T06:10:24.736Z,-1.79
2023-03-17T06:12:52.893Z,-1.70
2023-03-17T06:15:21.066Z,-1.64
2023-03-17T06:17:48.735Z,-1.58
2023-03-17T06:20:16.811Z,-1.49
2023-03-17T06:23:02.251Z,-1.43
2023-03-17T06:25:31.883Z,-1.35
2023-03-17T06:28:02.564Z,-1.29
2023-03-17T06:30:33.008Z,-1.23
2023-03-17T06:33:02.202Z,-1.17
2023-03-17T06:35:31.362Z,-1.07
2023-03-17T06:38:00.966Z,-0.97
2023-03-17T06:40:29.127Z,-0.89
2023-03-17T06:42:57.141Z,-0.81
2023-03-17T06:45:25.040Z,-0.75
2023-03-17T06:47:53.061Z,-0.64
2023-03-17T06:50:21.398Z,-0.50
2023-03-17T06:52:49.554Z,-0.34
2023-03-17T06:55:17.931Z,-0.18
2023-03-17T06:57:45.860Z,-0.00
2023-03-17T07:00:14.302Z,0.15
2023-03-17T07:02:43.293Z,0.30
2023-03-17T07:05:12.686Z,0.46
2023-03-17T07:07:41.187Z,0.66
2023-03-17T07:10:10.429Z,0.86
2023-03-17T07:12:38.098Z,1.02
2023-03-17T07:15:06.570Z,1.19
2023-03-17T07:17:34.527Z,1.32
2023-03-17T07:20:02.231Z,1.47
2023-03-17T07:22:29.924Z,1.60
2023-03-17T07:24:58.070Z,1.71
2023-03-17T07:27:26.539Z,1.85
2023-03-17T07:29:54.262Z,1.94
2023-03-17T07:32:21.996Z,2.08
2023-03-17T07:34:50.063Z,2.18
2023-03-17T07:37:17.962Z,2.27
2023-03-17T07:39:47.366Z,2.39
2023-03-17T07:42:17.497Z,2.56
2023-03-17T07:44:45.546Z,2.73
2023-03-17T07:47:14.539Z,2.89
2023-03-17T07:49:43.152Z,3.04
2023-03-17T07:52:12.648Z,3.16
2023-03-17T07:54:43.009Z,3.28
2023-03-17T07:57:12.104Z,3.44
2023-03-17T07:59:40.308Z,3.58
2023-03-17T08:02:11.303Z,3.74
2023-03-17T08:04:39.023Z,3.86
2023-03-17T08:07:07.053Z,3.93
2023-03-17T08:09:34.887Z,4.04
2023-03-17T08:12:04.032Z,4.21
2023-03-17T08:14:32.075Z,4.33
2023-03-17T08:16:59.961Z,4.43
2023-03-17T08:19:27.905Z,4.58
2023-03-17T08:21:55.786Z,4.73
2023-03-17T08:24:23.641Z,4.88
2023-03-17T08:26:51.404Z,4.97
2023-03-17T08:29:20.408Z,5.13
2023-03-17T08:31:48.284Z,5.25
2023-03-17T08:34:16.682Z,5.34
2023-03-17T08:36:44.637Z,5.46
2023-03-17T08:39:12.443Z,5.61
2023-03-17T08:41:40.127Z,5.67
2023-03-17T08:44:08.951Z,5.65
2023-03-17T08:46:37.505Z,5.68
2023-03-17T08:49:05.207Z,5.62
2023-03-17T08:51:35.908Z,5.61
2023-03-17T08:54:05.828Z,5.63
2023-03-17T08:56:34.441Z,5.69
2023-03-17T08:59:02.177Z,5.71
2023-03-17T09:01:30.183Z,5.74
2023-03-17T09:03:58.246Z,5.81
2023-03-17T09:06:26.474Z,5.90
2023-03-17T09:08:57.050Z,6.00
2023-03-17T09:11:28.160Z,6.10
2023-03-17T09:13:56.585Z,6.15
2023-03-17T09:16:25.534Z,6.22
2023-03-17T09:18:53.337Z,6.31
2023-03-17T09:21:21.403Z,6.37
2023-03-17T09:23:49.146Z,6.45
2023-03-17T09:26:16.940Z,6.51
2023-03-17T09:28:44.806Z,6.55
2023-03-17T09:31:13.070Z,6.62
2023-03-17T09:33:41.735Z,6.68
2023-03-17T09:36:10.656Z,6.76
2023-03-17T09:38:39.200Z,6.84
2023-03-17T09:41:23.929Z,6.92
2023-03-17T09:44:05.097Z,6.98
2023-03-17T09:46:53.790Z,7.03
2023-03-17T09:49:27.593Z,7.11
2023-03-17T09:51:56.270Z,7.20
2023-03-17T09:54:34.150Z,7.31
2023-03-17T09:57:33.023Z,7.36
2023-03-17T10:00:06.668Z,7.42
2023-03-17T10:02:37.559Z,7.47
2023-03-17T10:05:18.114Z,7.54
2023-03-17T10:08:22.739Z,7.66
2023-03-17T10:11:09.486Z,7.74
2023-03-17T10:14:00.665Z,7.80
2023-03-17T10:16:51.743Z,7.93
2023-03-17T10:19:40.557Z,7.96
2023-03-17T10:22:35.178Z,8.06
2023-03-17T10:25:07.648Z,8.21
2023-03-17T10:27:38.298Z,8.29
2023-03-17T10:30:16.172Z,8.36
2023-03-17T10:32:45.843Z,8.44
2023-03-17T10:35:15.524Z,8.54
2023-03-17T10:37:46.430Z,8.66
2023-03-17T10:40:26.732Z,8.76
2023-03-17T10:43:03.851Z,8.83
2023-03-17T10:45:34.020Z,8.86
2023-03-17T10:48:04.456Z,8.94
2023-03-17T10:50:36.009Z,8.98
2023-03-17T10:53:03.639Z,8.97
2023-03-17T10:55:44.744Z,9.00
2023-03-17T10:58:20.314Z,9.02
2023-03-17T11:01:22.945Z,9.05
2023-03-17T11:03:51.032Z,9.13
2023-03-17T11:06:30.896Z,9.20
2023-03-17T11:09:07.686Z,9.27
2023-03-17T11:11:44.912Z,9.29
2023-03-17T11:14:15.510Z,9.39
2023-03-17T11:17:00.098Z,9.42
2023-03-17T11:19:57.343Z,9.36
2023-03-17T11:22:40.643Z,9.32
2023-03-17T11:25:17.615Z,9.34
2023-03-17T11:28:08.028Z,9.34
2023-03-17T11:30:41.631Z,9.37
2023-03-17T11:33:39.365Z,9.41
2023-03-17T11:36:17.349Z,9.48
2023-03-17T11:39:00.806Z,9.53
2023-03-17T11:41:51.847Z,9.49
2023-03-17T11:44:41.168Z,9.45
2023-03-17T11:47:11.448Z,9.44
2023-03-17T11:49:40.708Z,9.48
2023-03-17T11:52:30.003Z,9.49
2023-03-17T11:55:02.462Z,9.48
2023-03-17T11:57:39.236Z,9.54
2023-03-17T12:00:34.009Z,9.54
2023-03-17T12:03:25.979Z,9.65
2023-03-17T12:05:58.551Z,9.68
2023-03-17T12:09:00.408Z,9.71
2023-03-17T12:11:32.051Z,9.68
2023-03-17T12:14:07.809Z,9.70
2023-03-17T12:16:41.432Z,9.72
2023-03-17T12:19:28.525Z,9.71
2023-03-17T12:22:01.275Z,9.71
2023-03-17T12:24:51.370Z,9.68
2023-03-17T12:27:33.613Z,9.63
2023-03-17T12:30:07.913Z,9.59
2023-03-17T12:32:49.581Z,9.54
2023-03-17T12:35:34.994Z,9.53
2023-03-17T12:38:12.430Z,9.56
2023-03-17T12:41:08.090Z,9.58
2023-03-17T12:44:08.016Z,9.58
2023-03-17T12:47:14.292Z,9.63
2023-03-17T12:50:15.700Z,9.62
2023-03-17T12:53:01.200Z,9.59
2023-03-17T12:55:32.618Z,9.65
2023-03-17T12:58:08.122Z,9.68
2023-03-17T13:00:50.761Z,9.74
2023-03-17T13:03:33.804Z,9.79
2023-03-17T13:06:21.277Z,9.88
2023-03-17T13:08:50.386Z,9.86
2023-03-17T13:11:36.411Z,9.89
2023-03-17T13:14:27.172Z,9.88
2023-03-17T13:17:16.717Z,9.98
2023-03-17T13:20:12.933Z,10.02
2023-03-17T13:23:00.553Z,10.07
2023-03-17T13:25:45.617Z,10.09
2023-03-17T13:28:13.289Z,10.02
2023-03-17T13:30:52.501Z,9.99
2023-03-17T13:33:24.096Z,9.98
2023-03-17T13:36:33.648Z,10.00
2023-03-17T13:39:27.103Z,10.00
2023-03-17T13:42:17.701Z,9.93
2023-03-17T13:45:23.378Z,9.89
2023-03-17T13:47:52.464Z,9.91
2023-03-17T13:50:30.835Z,9.93
2023-03-17T13:53:04.763Z,9.89
2023-03-17T13:55:42.816Z,9.81
2023-03-17T13:58:11.864Z,9.78
2023-03-17T14:00:43.865Z,9.72
2023-03-17T14:03:25.446Z,9.68
2023-03-17T14:05:54.228Z,9.68
2023-03-17T14:09:00.698Z,9.60
2023-03-17T14:11:45.264Z,9.53
2023-03-17T14:14:36.527Z,9.52
2023-03-17T14:17:12.200Z,9.50
2023-03-17T14:19:41.726Z,9.49
2023-03-17T14:22:22.458Z,9.43
2023-03-17T14:24:55.556Z,9.39
2023-03-17T14:27:24.710Z,9.35
2023-03-17T14:29:59.000Z,9.32
2023-03-17T14:32:27.161Z,9.32
2023-03-17T14:34:57.755Z,9.32
2023-03-17T14:37:28.533Z,9.39
2023-03-17T14:39:59.143Z,9.43
2023-03-17T14:42:31.666Z,9.49
2023-03-17T14:45:02.224Z,9.54
2023-03-17T14:47:37.349Z,9.62
2023-03-17T14:50:14.549Z,9.65
2023-03-17T14:52:42.787Z,9.67
2023-03-17T14:55:16.006Z,9.63
2023-03-17T14:57:49.373Z,9.62
2023-03-17T15:00:36.555Z,9.58
2023-03-17T15:03:17.629Z,9.51
2023-03-17T15:05:46.769Z,9.46
2023-03-17T15:08:41.152Z,9.37
2023-03-17T15:11:34.903Z,9.33
2023-03-17T15:14:16.140Z,9.30
2023-03-17T15:16:49.734Z,9.32
2023-03-17T15:19:47.954Z,9.36
2023-03-17T15:22:29.909Z,9.33
2023-03-17T15:25:23.230Z,9.29
2023-03-17T15:27:52.153Z,9.25
2023-03-17T15:30:21.041Z,9.21
2023-03-17T15:33:02.692Z,9.14
2023-03-17T15:35:30.591Z,9.06
2023-03-17T15:37:58.298Z,9.00
2023-03-17T15:40:25.961Z,8.92
2023-03-17T15:42:53.598Z,8.83
2023-03-17T15:45:21.255Z,8.75
2023-03-17T15:47:49.033Z,8.70
2023-03-17T15:50:28.520Z,8.66
2023-03-17T15:52:57.124Z,8.57
2023-03-17T15:55:29.853Z,8.50
2023-03-17T15:57:58.711Z,8.43
2023-03-17T16:00:29.956Z,8.36
2023-03-17T16:03:04.384Z,8.27
2023-03-17T16:05:35.015Z,8.20
2023-03-17T16:08:04.756Z,8.14
2023-03-17T16:10:33.658Z,8.06
2023-03-17T16:13:01.491Z,7.95
2023-03-17T16:15:32.991Z,7.86
2023-03-17T16:18:04.344Z,7.74
2023-03-17T16:20:36.333Z,7.63
2023-03-17T16:23:08.859Z,7.51
2023-03-17T16:25:36.967Z,7.44
2023-03-17T16:28:20.768Z,7.35
2023-03-17T16:30:49.133Z,7.25
2023-03-17T16:33:39.633Z,7.09
2023-03-17T16:36:07.734Z,6.99
2023-03-17T16:38:35.484Z,6.90
2023-03-17T16:41:09.188Z,6.81
2023-03-17T16:43:38.099Z,6.72
2023-03-17T16:46:11.447Z,6.61
2023-03-17T16:48:39.491Z,6.52
2023-03-17T16:51:07.355Z,6.46
2023-03-17T16:53:35.408Z,6.37
2023-03-17T16:56:03.596Z,6.32
2023-03-17T16:58:37.021Z,6.25
2023-03-17T17:01:15.531Z,6.17
2023-03-17T17:03:43.892Z,6.09
2023-03-17T17:06:14.504Z,6.02
2023-03-17T17:08:46.966Z,5.94
2023-03-17T17:11:16.787Z,5.85
2023-03-17T17:13:52.607Z,5.78
2023-03-17T17:16:28.720Z,5.70
2023-03-17T17:18:57.229Z,5.63
2023-03-17T17:21:26.338Z,5.56
2023-03-17T17:24:07.397Z,5.50
2023-03-17T17:26:37.031Z,5.46
2023-03-17T17:29:04.808Z,5.43
2023-03-17T17:31:32.593Z,5.38
2023-03-17T17:34:00.483Z,5.32
2023-03-17T17:36:28.447Z,5.26
2023-03-17T17:38:56.124Z,5.19
2023-03-17T17:41:24.321Z,5.11
2023-03-17T17:43:53.750Z,5.06
2023-03-17T17:46:23.027Z,5.01
2023-03-17T17:48:50.917Z,4.96
2023-03-17T17:51:20.952Z,4.93
2023-03-17T17:53:52.180Z,4.89
2023-03-17T17:56:20.199Z,4.81
2023-03-17T17:58:49.516Z,4.77
2023-03-17T18:01:21.873Z,4.72
2023-03-17T18:03:49.620Z,4.67
2023-03-17T18:06:18.066Z,4.63
2023-03-17T18:08:46.129Z,4.60
2023-03-17T18:11:13.790Z,4.57
2023-03-17T18:13:41.563Z,4.53
2023-03-17T18:16:18.401Z,4.49
2023-03-17T18:18:47.297Z,4.46
2023-03-17T18:21:15.158Z,4.42
2023-03-17T18:23:47.098Z,4.39
2023-03-17T18:26:16.233Z,4.35
2023-03-17T18:28:44.506Z,4.33
2023-03-17T18:31:19.107Z,4.28
2023-03-17T18:33:49.307Z,4.24
2023-03-17T18:36:18.667Z,4.20
2023-03-17T18:38:46.386Z,4.17
2023-03-17T18:41:14.455Z,4.13
2023-03-17T18:43:44.799Z,4.07
2023-03-17T18:46:16.347Z,4.04
2023-03-17T18:48:44.165Z,4.04
2023-03-17T18:51:11.846Z,4.03
2023-03-17T18:53:39.557Z,4.02
2023-03-17T18:56:07.612Z,4.02
2023-03-17T18:58:36.396Z,4.01
2023-03-17T19:01:04.396Z,4.00
2023-03-17T19:03:32.455Z,3.98
2023-03-17T19:06:13.041Z,3.96
2023-03-17T19:08:41.531Z,3.95
2023-03-17T19:11:11.468Z,3.92
2023-03-17T19:13:39.917Z,3.89
2023-03-17T19:16:09.303Z,3.86
2023-03-17T19:18:41.406Z,3.84
2023-03-17T19:21:10.759Z,3.82
2023-03-17T19:23:39.647Z,3.80
2023-03-17T19:26:08.702Z,3.79
2023-03-17T19:28:36.328Z,3.79
2023-03-17T19:31:04.106Z,3.79
2023-03-17T19:33:32.801Z,3.80
2023-03-17T19:36:02.721Z,3.79
2023-03-17T19:38:31.014Z,3.79
2023-03-17T19:40:58.783Z,3.79
2023-03-17T19:43:40.023Z,3.77
2023-03-17T19:46:11.398Z,3.76
2023-03-17T19:48:39.893Z,3.76
2023-03-17T19:51:08.202Z,3.76
2023-03-17T19:53:37.375Z,3.75
2023-03-17T19:56:05.589Z,3.75
2023-03-17T19:58:33.272Z,3.73
2023-03-17T20:01:01.346Z,3.71
2023-03-17T20:03:29.364Z,3.69
2023-03-17T20:06:02.292Z,3.69
2023-03-17T20:08:29.942Z,3.68
2023-03-17T20:10:57.995Z,3.67
2023-03-17T20:13:25.720Z,3.68
2023-03-17T20:15:54.440Z,3.67
2023-03-17T20:18:25.247Z,3.67
2023-03-17T20:20:54.944Z,3.67
2023-03-17T20:23:23.750Z,3.67
2023-03-17T20:25:53.872Z,3.66
2023-03-17T20:28:21.650Z,3.66
2023-03-17T20:30:51.967Z,3.66
2023-03-17T20:33:19.845Z,3.65
2023-03-17T20:35:47.651Z,3.65
2023-03-17T20:38:16.061Z,3.66
2023-03-17T20:40:47.242Z,3.65
2023-03-17T20:43:15.273Z,3.64
2023-03-17T20:45:43.275Z,3.60
2023-03-17T20:48:11.296Z,3.60
2023-03-17T20:50:39.324Z,3.59
2023-03-17T20:53:07.533Z,3.59
2023-03-17T20:55:36.501Z,3.57
2023-03-17T20:58:04.252Z,3.56
2023-03-17T21:00:32.993Z,3.53
2023-03-17T21:03:00.998Z,3.51
2023-03-17T21:05:30.915Z,3.49
2023-03-17T21:07:58.612Z,3.47
2023-03-17T21:10:26.366Z,3.47
2023-03-17T21:12:54.010Z,3.45
2023-03-17T21:15:23.768Z,3.41
2023-03-17T21:17:51.525Z,3.39
2023-03-17T21:20:21.205Z,3.38
2023-03-17T21:22:48.912Z,3.35
2023-03-17T21:25:16.603Z,3.32
2023-03-17T21:27:44.280Z,3.27
2023-03-17T21:30:17.988Z,3.26
2023-03-17T21:32:45.648Z,3.23
2023-03-17T21:35:14.716Z,3.20
2023-03-17T21:37:42.406Z,3.20
2023-03-17T21:40:13.049Z,3.17
2023-03-17T21:42:40.798Z,3.14
2023-03-17T21:45:09.808Z,3.10
2023-03-17T21:47:37.880Z,3.07
2023-03-17T21:50:06.034Z,3.07
2023-03-17T21:52:33.702Z,3.05
2023-03-17T21:55:01.386Z,3.01
2023-03-17T21:57:29.731Z,3.01
2023-03-17T21:59:57.542Z,2.99
2023-03-17T22:02:25.673Z,2.97
2023-03-17T22:04:53.525Z,2.95
2023-03-17T22:07:23.965Z,2.92
2023-03-17T22:09:57.169Z,2.90
2023-03-17T22:12:24.964Z,2.88
2023-03-17T22:14:53.717Z,2.86
2023-03-17T22:17:21.467Z,2.85
2023-03-17T22:19:49.216Z,2.85
2023-03-17T22:22:16.872Z,2.83
2023-03-17T22:24:44.632Z,2.84
2023-03-17T22:27:12.735Z,2.85
2023-03-17T22:29:40.489Z,2.85
2023-03-17T22:32:09.051Z,2.84
2023-03-17T22:34:37.418Z,2.83
2023-03-17T22:37:05.306Z,2.82
2023-03-17T22:39:37.117Z,2.83
2023-03-17T22:42:05.688Z,2.82
2023-03-17T22:44:35.683Z,2.82
2023-03-17T22:47:03.602Z,2.82
2023-03-17T22:49:31.328Z,2.81
2023-03-17T22:51:58.998Z,2.80
2023-03-17T22:54:27.003Z,2.79
2023-03-17T22:56:54.655Z,2.78
2023-03-17T22:59:22.466Z,2.76
2023-03-17T23:01:50.451Z,2.77
2023-03-17T23:04:18.577Z,2.76
2023-03-17T23:06:46.589Z,2.75
2023-03-17T23:09:14.859Z,2.74
2023-03-17T23:11:42.796Z,2.71
2023-03-17T23:14:11.421Z,2.71
2023-03-17T23:16:39.120Z,2.70
2023-03-17T23:19:06.833Z,2.70
2023-03-17T23:21:38.548Z,2.69
2023-03-17T23:24:08.654Z,2.69
2023-03-17T23:26:37.088Z,2.69
2023-03-17T23:29:07.370Z,2.69
2023-03-17T23:31:37.089Z,2.66
2023-03-17T23:34:06.752Z,2.64
2023-03-17T23:36:38.292Z,2.63
2023-03-17T23:39:08.169Z,2.60
2023-03-17T23:41:36.341Z,2.59
2023-03-17T23:44:05.590Z,2.56
2023-03-17T23:46:33.508Z,2.54
2023-03-17T23:49:01.630Z,2.51
2023-03-17T23:51:29.370Z,2.50
2023-03-17T23:53:58.282Z,2.50
2023-03-17T23:56:26.001Z,2.48
2023-03-17T23:58:53.827Z,2.45
